sensor_id;sensor_type;location;lat;lon;timestamp;pressure;altitude;pressure_sealevel;temperature;humidity
46722;BME280;32455;43.430;23.136;2023-07-02T00:01:02;97314.78;;;18.48;100.00
46722;BME280;32455;43.430;23.136;2023-07-02T00:03:47;97312.66;;;18.26;100.00
46722;BME280;32455;43.430;23.136;2023-07-02T00:06:33;97319.13;;;18.31;100.00
46722;BME280;32455;43.430;23.136;2023-07-02T00:09:26;97312.00;;;18.35;100.00
46722;BME280;32455;43.430;23.136;2023-07-02T00:12:12;97317.72;;;18.52;100.00
46722;BME280;32455;43.430;23.136;2023-07-02T00:14:57;97310.00;;;18.59;100.00
46722;BME280;32455;43.430;23.136;2023-07-02T00:17:42;97315.88;;;18.66;100.00
46722;BME280;32455;43.430;23.136;2023-07-02T00:20:28;97325.91;;;18.71;100.00
46722;BME280;32455;43.430;23.136;2023-07-02T00:23:14;97323.75;;;18.49;100.00
46722;BME280;32455;43.430;23.136;2023-07-02T00:25:59;97325.44;;;18.45;100.00
46722;BME280;32455;43.430;23.136;2023-07-02T00:28:44;97320.22;;;18.30;100.00
46722;BME280;32455;43.430;23.136;2023-07-02T00:31:30;97322.81;;;18.40;100.00
46722;BME280;32455;43.430;23.136;2023-07-02T00:34:15;97328.91;;;18.32;100.00
46722;BME280;32455;43.430;23.136;2023-07-02T00:37:00;97321.97;;;18.01;100.00
46722;BME280;32455;43.430;23.136;2023-07-02T00:39:45;97328.72;;;18.04;100.00
46722;BME280;32455;43.430;23.136;2023-07-02T00:42:31;97336.09;;;18.04;100.00
46722;BME280;32455;43.430;23.136;2023-07-02T00:45:16;97342.81;;;18.06;100.00
46722;BME280;32455;43.430;23.136;2023-07-02T00:48:01;97351.38;;;18.18;100.00
46722;BME280;32455;43.430;23.136;2023-07-02T00:50:46;97342.63;;;18.21;100.00
46722;BME280;32455;43.430;23.136;2023-07-02T00:53:32;97342.03;;;18.06;100.00
46722;BME280;32455;43.430;23.136;2023-07-02T00:56:18;97349.59;;;18.09;100.00
46722;BME280;32455;43.430;23.136;2023-07-02T00:59:03;97344.78;;;18.24;100.00
46722;BME280;32455;43.430;23.136;2023-07-02T01:01:48;97336.66;;;18.19;100.00
46722;BME280;32455;43.430;23.136;2023-07-02T01:04:34;97343.16;;;18.23;100.00
46722;BME280;32455;43.430;23.136;2023-07-02T01:07:19;97333.38;;;18.22;100.00
46722;BME280;32455;43.430;23.136;2023-07-02T01:10:05;97341.06;;;17.96;100.00
46722;BME280;32455;43.430;23.136;2023-07-02T03:48:50;97304.97;;;19.18;100.00
46722;BME280;32455;43.430;23.136;2023-07-02T04:10:35;97304.28;;;19.12;100.00
46722;BME280;32455;43.430;23.136;2023-07-02T04:13:21;97312.28;;;18.90;100.00
46722;BME280;32455;43.430;23.136;2023-07-02T04:16:06;97321.03;;;18.87;100.00
46722;BME280;32455;43.430;23.136;2023-07-02T04:18:52;97326.47;;;18.87;100.00
46722;BME280;32455;43.430;23.136;2023-07-02T04:21:37;97316.59;;;18.91;100.00
46722;BME280;32455;43.430;23.136;2023-07-02T04:24:23;97331.16;;;19.00;100.00
46722;BME280;32455;43.430;23.136;2023-07-02T04:27:08;97332.75;;;19.01;100.00
46722;BME280;32455;43.430;23.136;2023-07-02T05:07:31;97376.75;;;20.29;100.00
46722;BME280;32455;43.430;23.136;2023-07-02T05:10:16;97379.00;;;20.13;100.00
46722;BME280;32455;43.430;23.136;2023-07-02T05:13:02;97379.81;;;20.13;100.00
46722;BME280;32455;43.430;23.136;2023-07-02T05:15:47;97375.25;;;20.09;100.00
46722;BME280;32455;43.430;23.136;2023-07-02T05:18:33;97379.59;;;20.23;100.00
46722;BME280;32455;43.430;23.136;2023-07-02T05:21:19;97385.13;;;20.32;100.00
46722;BME280;32455;43.430;23.136;2023-07-02T05:24:05;97394.34;;;20.22;100.00
46722;BME280;32455;43.430;23.136;2023-07-02T05:26:51;97380.41;;;20.10;100.00
46722;BME280;32455;43.430;23.136;2023-07-02T05:29:36;97390.59;;;20.32;100.00
46722;BME280;32455;43.430;23.136;2023-07-02T05:32:22;97393.41;;;20.41;100.00
46722;BME280;32455;43.430;23.136;2023-07-02T05:35:07;97393.94;;;20.43;100.00
46722;BME280;32455;43.430;23.136;2023-07-02T05:37:53;97402.91;;;20.43;100.00
46722;BME280;32455;43.430;23.136;2023-07-02T05:40:38;97398.56;;;20.42;100.00
46722;BME280;32455;43.430;23.136;2023-07-02T05:43:23;97397.53;;;20.38;100.00
46722;BME280;32455;43.430;23.136;2023-07-02T05:46:08;97400.78;;;20.40;100.00
46722;BME280;32455;43.430;23.136;2023-07-02T05:48:53;97393.28;;;20.46;100.00
46722;BME280;32455;43.430;23.136;2023-07-02T05:51:42;97397.53;;;20.66;100.00
46722;BME280;32455;43.430;23.136;2023-07-02T05:54:27;97399.16;;;20.67;100.00
46722;BME280;32455;43.430;23.136;2023-07-02T05:57:12;97400.44;;;20.83;100.00
46722;BME280;32455;43.430;23.136;2023-07-02T05:59:58;97409.38;;;20.97;100.00
46722;BME280;32455;43.430;23.136;2023-07-02T06:02:46;97413.44;;;21.00;100.00
46722;BME280;32455;43.430;23.136;2023-07-02T06:05:31;97414.22;;;21.00;100.00
46722;BME280;32455;43.430;23.136;2023-07-02T06:08:17;97418.38;;;20.98;100.00
46722;BME280;32455;43.430;23.136;2023-07-02T06:11:03;97415.75;;;20.93;100.00
46722;BME280;32455;43.430;23.136;2023-07-02T06:13:48;97418.41;;;20.84;100.00
46722;BME280;32455;43.430;23.136;2023-07-02T06:19:09;97413.84;;;20.93;100.00
46722;BME280;32455;43.430;23.136;2023-07-02T06:21:54;97417.28;;;20.99;100.00
46722;BME280;32455;43.430;23.136;2023-07-02T06:24:39;97412.66;;;20.86;100.00
46722;BME280;32455;43.430;23.136;2023-07-02T06:27:24;97404.63;;;20.67;100.00
46722;BME280;32455;43.430;23.136;2023-07-02T06:30:09;97399.50;;;20.88;100.00
46722;BME280;32455;43.430;23.136;2023-07-02T06:32:55;97396.66;;;20.93;100.00
46722;BME280;32455;43.430;23.136;2023-07-02T06:35:40;97400.19;;;20.93;100.00
46722;BME280;32455;43.430;23.136;2023-07-02T06:38:26;97410.31;;;20.93;100.00
46722;BME280;32455;43.430;23.136;2023-07-02T06:41:11;97405.56;;;20.98;100.00
46722;BME280;32455;43.430;23.136;2023-07-02T06:43:57;97402.31;;;20.96;100.00
46722;BME280;32455;43.430;23.136;2023-07-02T06:46:46;97412.31;;;21.01;100.00
46722;BME280;32455;43.430;23.136;2023-07-02T06:49:31;97397.97;;;21.18;100.00
46722;BME280;32455;43.430;23.136;2023-07-02T06:52:16;97401.97;;;21.34;100.00
46722;BME280;32455;43.430;23.136;2023-07-02T06:55:03;97402.72;;;21.48;100.00
46722;BME280;32455;43.430;23.136;2023-07-02T06:57:49;97403.88;;;21.56;100.00
46722;BME280;32455;43.430;23.136;2023-07-02T07:00:34;97408.53;;;21.56;100.00
46722;BME280;32455;43.430;23.136;2023-07-02T07:03:22;97398.59;;;21.60;100.00
46722;BME280;32455;43.430;23.136;2023-07-02T07:06:07;97402.03;;;21.74;100.00
46722;BME280;32455;43.430;23.136;2023-07-02T07:08:52;97404.50;;;21.75;100.00
46722;BME280;32455;43.430;23.136;2023-07-02T07:11:38;97412.97;;;21.74;100.00
46722;BME280;32455;43.430;23.136;2023-07-02T07:14:23;97415.50;;;21.93;100.00
46722;BME280;32455;43.430;23.136;2023-07-02T07:17:08;97422.72;;;21.89;100.00
46722;BME280;32455;43.430;23.136;2023-07-02T07:19:54;97420.38;;;21.73;100.00
46722;BME280;32455;43.430;23.136;2023-07-02T07:22:39;97430.19;;;21.74;100.00
46722;BME280;32455;43.430;23.136;2023-07-02T07:25:25;97414.19;;;21.90;100.00
46722;BME280;32455;43.430;23.136;2023-07-02T07:28:11;97419.38;;;22.00;100.00
46722;BME280;32455;43.430;23.136;2023-07-02T07:31:00;97431.69;;;21.81;100.00
46722;BME280;32455;43.430;23.136;2023-07-02T07:33:45;97426.78;;;22.00;100.00
46722;BME280;32455;43.430;23.136;2023-07-02T07:36:32;97431.03;;;21.84;100.00
46722;BME280;32455;43.430;23.136;2023-07-02T07:39:17;97432.78;;;21.80;100.00
46722;BME280;32455;43.430;23.136;2023-07-02T07:42:02;97439.44;;;21.87;100.00
46722;BME280;32455;43.430;23.136;2023-07-02T07:44:48;97435.69;;;22.06;100.00
46722;BME280;32455;43.430;23.136;2023-07-02T07:47:33;97442.31;;;22.13;100.00
46722;BME280;32455;43.430;23.136;2023-07-02T07:50:19;97430.75;;;22.16;100.00
46722;BME280;32455;43.430;23.136;2023-07-02T07:53:04;97430.81;;;22.34;100.00
46722;BME280;32455;43.430;23.136;2023-07-02T07:55:49;97428.28;;;22.55;100.00
46722;BME280;32455;43.430;23.136;2023-07-02T07:58:34;97435.38;;;22.56;100.00
46722;BME280;32455;43.430;23.136;2023-07-02T08:01:19;97430.72;;;22.65;100.00
46722;BME280;32455;43.430;23.136;2023-07-02T08:04:05;97436.38;;;22.77;100.00
46722;BME280;32455;43.430;23.136;2023-07-02T08:06:51;97431.47;;;22.96;100.00
46722;BME280;32455;43.430;23.136;2023-07-02T08:09:36;97429.47;;;22.88;100.00
46722;BME280;32455;43.430;23.136;2023-07-02T08:12:21;97448.22;;;23.12;100.00
46722;BME280;32455;43.430;23.136;2023-07-02T08:15:07;97446.59;;;23.29;100.00
46722;BME280;32455;43.430;23.136;2023-07-02T08:17:52;97440.81;;;23.30;100.00
46722;BME280;32455;43.430;23.136;2023-07-02T08:20:39;97447.91;;;23.40;100.00
46722;BME280;32455;43.430;23.136;2023-07-02T08:41:59;97445.75;;;24.27;100.00
46722;BME280;32455;43.430;23.136;2023-07-02T08:44:53;97443.22;;;24.13;100.00
46722;BME280;32455;43.430;23.136;2023-07-02T08:47:38;97439.50;;;24.18;100.00
46722;BME280;32455;43.430;23.136;2023-07-02T08:50:23;97446.78;;;24.14;100.00
46722;BME280;32455;43.430;23.136;2023-07-02T08:53:09;97438.84;;;24.21;100.00
46722;BME280;32455;43.430;23.136;2023-07-02T08:55:54;97441.38;;;24.35;100.00
46722;BME280;32455;43.430;23.136;2023-07-02T08:58:39;97440.91;;;24.33;100.00
46722;BME280;32455;43.430;23.136;2023-07-02T09:01:25;97447.16;;;24.51;100.00
46722;BME280;32455;43.430;23.136;2023-07-02T09:04:21;97455.84;;;24.53;100.00
46722;BME280;32455;43.430;23.136;2023-07-02T09:07:10;97448.31;;;24.41;100.00
46722;BME280;32455;43.430;23.136;2023-07-02T09:09:55;97452.91;;;24.58;100.00
46722;BME280;32455;43.430;23.136;2023-07-02T09:12:41;97442.69;;;24.67;100.00
46722;BME280;32455;43.430;23.136;2023-07-02T09:15:26;97443.16;;;24.69;100.00
46722;BME280;32455;43.430;23.136;2023-07-02T09:18:19;97433.97;;;24.65;100.00
46722;BME280;32455;43.430;23.136;2023-07-02T09:21:04;97444.09;;;24.73;100.00
46722;BME280;32455;43.430;23.136;2023-07-02T09:23:50;97442.66;;;24.76;100.00
46722;BME280;32455;43.430;23.136;2023-07-02T09:26:36;97440.44;;;24.90;100.00
46722;BME280;32455;43.430;23.136;2023-07-02T09:29:28;97453.13;;;25.03;100.00
46722;BME280;32455;43.430;23.136;2023-07-02T09:32:14;97452.28;;;25.11;100.00
46722;BME280;32455;43.430;23.136;2023-07-02T09:35:08;97443.81;;;25.16;100.00
46722;BME280;32455;43.430;23.136;2023-07-02T10:26:19;97475.31;;;23.66;100.00
46722;BME280;32455;43.430;23.136;2023-07-02T10:29:06;97467.41;;;23.30;100.00
46722;BME280;32455;43.430;23.136;2023-07-02T10:31:54;97470.00;;;23.17;100.00
46722;BME280;32455;43.430;23.136;2023-07-02T10:34:39;97457.72;;;22.97;100.00
46722;BME280;32455;43.430;23.136;2023-07-02T10:37:25;97461.25;;;22.98;100.00
46722;BME280;32455;43.430;23.136;2023-07-02T11:09:50;97464.66;;;23.21;100.00
46722;BME280;32455;43.430;23.136;2023-07-02T11:12:36;97458.47;;;22.89;100.00
46722;BME280;32455;43.430;23.136;2023-07-02T11:15:21;97463.63;;;22.82;100.00
46722;BME280;32455;43.430;23.136;2023-07-02T11:18:13;97451.84;;;22.82;100.00
46722;BME280;32455;43.430;23.136;2023-07-02T13:20:29;97426.53;;;22.59;100.00
46722;BME280;32455;43.430;23.136;2023-07-02T13:23:15;97422.88;;;22.81;100.00
46722;BME280;32455;43.430;23.136;2023-07-02T13:26:00;97426.44;;;23.16;100.00
46722;BME280;32455;43.430;23.136;2023-07-02T13:28:46;97422.41;;;23.65;100.00
46722;BME280;32455;43.430;23.136;2023-07-02T13:31:32;97434.66;;;23.68;100.00
46722;BME280;32455;43.430;23.136;2023-07-02T13:34:17;97440.34;;;24.10;100.00
46722;BME280;32455;43.430;23.136;2023-07-02T13:37:03;97443.16;;;24.39;100.00
46722;BME280;32455;43.430;23.136;2023-07-02T13:39:49;97445.59;;;24.62;100.00
46722;BME280;32455;43.430;23.136;2023-07-02T13:42:35;97442.06;;;24.61;100.00
46722;BME280;32455;43.430;23.136;2023-07-02T13:45:20;97450.44;;;24.27;100.00
46722;BME280;32455;43.430;23.136;2023-07-02T13:48:06;97457.47;;;23.98;100.00
46722;BME280;32455;43.430;23.136;2023-07-02T13:50:51;97454.00;;;23.71;100.00
46722;BME280;32455;43.430;23.136;2023-07-02T13:53:36;97459.66;;;23.66;100.00
46722;BME280;32455;43.430;23.136;2023-07-02T13:56:22;97466.25;;;23.83;100.00
46722;BME280;32455;43.430;23.136;2023-07-02T13:59:07;97475.91;;;24.36;100.00
46722;BME280;32455;43.430;23.136;2023-07-02T14:01:53;97468.22;;;24.38;100.00
46722;BME280;32455;43.430;23.136;2023-07-02T14:04:38;97470.84;;;24.17;100.00
46722;BME280;32455;43.430;23.136;2023-07-02T14:07:24;97482.66;;;24.09;100.00
46722;BME280;32455;43.430;23.136;2023-07-02T14:10:10;97474.81;;;23.90;100.00
46722;BME280;32455;43.430;23.136;2023-07-02T14:12:57;97478.22;;;23.78;100.00
46722;BME280;32455;43.430;23.136;2023-07-02T14:15:42;97489.66;;;23.45;100.00
46722;BME280;32455;43.430;23.136;2023-07-02T14:18:27;97496.28;;;23.27;100.00
46722;BME280;32455;43.430;23.136;2023-07-02T14:21:13;97496.44;;;23.39;100.00
46722;BME280;32455;43.430;23.136;2023-07-02T14:23:58;97499.47;;;23.20;100.00
46722;BME280;32455;43.430;23.136;2023-07-02T14:26:43;97491.91;;;23.09;100.00
46722;BME280;32455;43.430;23.136;2023-07-02T14:29:29;97500.13;;;23.09;100.00
46722;BME280;32455;43.430;23.136;2023-07-02T14:32:15;97503.19;;;23.07;100.00
46722;BME280;32455;43.430;23.136;2023-07-02T14:34:59;97496.84;;;22.89;100.00
46722;BME280;32455;43.430;23.136;2023-07-02T14:37:44;97494.31;;;22.93;100.00
46722;BME280;32455;43.430;23.136;2023-07-02T14:40:31;97487.66;;;22.85;100.00
46722;BME280;32455;43.430;23.136;2023-07-02T14:43:17;97476.34;;;22.78;100.00
46722;BME280;32455;43.430;23.136;2023-07-02T14:46:03;97476.06;;;22.88;100.00
46722;BME280;32455;43.430;23.136;2023-07-02T14:48:49;97468.69;;;22.97;100.00
46722;BME280;32455;43.430;23.136;2023-07-02T14:51:34;97460.81;;;23.13;100.00
46722;BME280;32455;43.430;23.136;2023-07-02T14:54:19;97461.44;;;23.19;100.00
46722;BME280;32455;43.430;23.136;2023-07-02T14:57:05;97462.75;;;23.13;100.00
46722;BME280;32455;43.430;23.136;2023-07-02T14:59:51;97464.00;;;23.07;100.00
46722;BME280;32455;43.430;23.136;2023-07-02T15:02:36;97457.72;;;22.97;100.00
46722;BME280;32455;43.430;23.136;2023-07-02T15:05:22;97461.22;;;22.89;100.00
46722;BME280;32455;43.430;23.136;2023-07-02T15:08:08;97450.44;;;22.84;100.00
46722;BME280;32455;43.430;23.136;2023-07-02T15:10:54;97458.06;;;22.96;100.00
46722;BME280;32455;43.430;23.136;2023-07-02T15:13:40;97457.91;;;23.01;100.00
46722;BME280;32455;43.430;23.136;2023-07-02T15:16:26;97451.44;;;22.97;100.00
46722;BME280;32455;43.430;23.136;2023-07-02T15:19:11;97453.16;;;22.84;100.00
46722;BME280;32455;43.430;23.136;2023-07-02T15:21:57;97455.06;;;22.66;100.00
46722;BME280;32455;43.430;23.136;2023-07-02T15:24:43;97462.31;;;22.71;100.00
46722;BME280;32455;43.430;23.136;2023-07-02T15:27:28;97467.19;;;22.74;100.00
46722;BME280;32455;43.430;23.136;2023-07-02T15:30:15;97454.59;;;22.73;100.00
46722;BME280;32455;43.430;23.136;2023-07-02T15:33:00;97467.47;;;22.72;100.00
46722;BME280;32455;43.430;23.136;2023-07-02T15:35:46;97467.88;;;22.97;100.00
46722;BME280;32455;43.430;23.136;2023-07-02T15:38:31;97469.16;;;23.08;100.00
46722;BME280;32455;43.430;23.136;2023-07-02T15:41:18;97459.44;;;22.76;100.00
46722;BME280;32455;43.430;23.136;2023-07-02T15:44:07;97456.69;;;22.76;100.00
46722;BME280;32455;43.430;23.136;2023-07-02T15:46:52;97457.47;;;22.59;100.00
46722;BME280;32455;43.430;23.136;2023-07-02T16:27:49;97478.50;;;23.85;100.00
46722;BME280;32455;43.430;23.136;2023-07-02T16:30:34;97475.31;;;23.57;100.00
46722;BME280;32455;43.430;23.136;2023-07-02T16:33:20;97475.31;;;23.31;100.00
46722;BME280;32455;43.430;23.136;2023-07-02T16:36:09;97486.75;;;23.24;100.00
46722;BME280;32455;43.430;23.136;2023-07-02T16:38:54;97493.53;;;23.27;100.00
46722;BME280;32455;43.430;23.136;2023-07-02T16:41:40;97491.09;;;23.08;100.00
46722;BME280;32455;43.430;23.136;2023-07-02T16:44:35;97472.00;;;22.86;100.00
46722;BME280;32455;43.430;23.136;2023-07-02T16:47:20;97491.34;;;22.89;100.00
46722;BME280;32455;43.430;23.136;2023-07-02T16:50:06;97487.44;;;22.73;100.00
46722;BME280;32455;43.430;23.136;2023-07-02T16:52:51;97486.91;;;22.45;100.00
46722;BME280;32455;43.430;23.136;2023-07-02T16:55:36;97503.31;;;22.45;100.00
46722;BME280;32455;43.430;23.136;2023-07-02T16:58:23;97511.47;;;22.28;100.00
46722;BME280;32455;43.430;23.136;2023-07-02T17:01:11;97513.34;;;22.18;100.00
46722;BME280;32455;43.430;23.136;2023-07-02T17:03:56;97520.63;;;22.23;100.00
46722;BME280;32455;43.430;23.136;2023-07-02T17:06:48;97528.31;;;22.21;100.00
46722;BME280;32455;43.430;23.136;2023-07-02T17:09:36;97513.16;;;21.92;100.00
46722;BME280;32455;43.430;23.136;2023-07-02T17:12:22;97523.03;;;21.80;100.00
46722;BME280;32455;43.430;23.136;2023-07-02T17:15:07;97535.50;;;21.86;100.00
46722;BME280;32455;43.430;23.136;2023-07-02T17:17:52;97525.16;;;21.83;100.00
46722;BME280;32455;43.430;23.136;2023-07-02T17:20:37;97524.78;;;21.98;100.00
46722;BME280;32455;43.430;23.136;2023-07-02T17:23:24;97539.94;;;22.04;100.00
46722;BME280;32455;43.430;23.136;2023-07-02T17:26:10;97541.25;;;22.07;100.00
46722;BME280;32455;43.430;23.136;2023-07-02T17:28:56;97525.78;;;22.02;100.00
46722;BME280;32455;43.430;23.136;2023-07-02T17:31:41;97524.41;;;21.91;100.00
46722;BME280;32455;43.430;23.136;2023-07-02T17:34:29;97535.41;;;21.99;100.00
46722;BME280;32455;43.430;23.136;2023-07-02T17:37:14;97520.44;;;21.97;100.00
46722;BME280;32455;43.430;23.136;2023-07-02T17:40:01;97522.81;;;21.90;100.00
46722;BME280;32455;43.430;23.136;2023-07-02T17:42:47;97534.88;;;21.89;100.00
46722;BME280;32455;43.430;23.136;2023-07-02T17:45:33;97532.88;;;21.81;100.00
46722;BME280;32455;43.430;23.136;2023-07-02T19:02:27;97633.06;;;20.99;100.00
46722;BME280;32455;43.430;23.136;2023-07-02T19:05:11;97633.84;;;20.72;100.00
46722;BME280;32455;43.430;23.136;2023-07-02T19:07:56;97639.06;;;20.68;100.00
46722;BME280;32455;43.430;23.136;2023-07-02T19:10:41;97637.88;;;20.61;100.00
46722;BME280;32455;43.430;23.136;2023-07-02T19:13:28;97629.69;;;20.61;100.00
46722;BME280;32455;43.430;23.136;2023-07-02T19:16:13;97637.97;;;20.56;100.00
46722;BME280;32455;43.430;23.136;2023-07-02T19:18:58;97645.25;;;20.60;100.00
46722;BME280;32455;43.430;23.136;2023-07-02T19:21:44;97642.72;;;20.64;100.00
46722;BME280;32455;43.430;23.136;2023-07-02T19:24:29;97647.25;;;20.55;100.00
46722;BME280;32455;43.430;23.136;2023-07-02T19:27:16;97647.47;;;20.58;100.00
46722;BME280;32455;43.430;23.136;2023-07-02T19:30:02;97656.19;;;20.60;100.00
46722;BME280;32455;43.430;23.136;2023-07-02T20:39:43;97676.16;;;20.23;100.00
46722;BME280;32455;43.430;23.136;2023-07-02T20:42:30;97673.75;;;19.60;100.00
46722;BME280;32455;43.430;23.136;2023-07-02T20:45:16;97675.28;;;19.47;100.00
46722;BME280;32455;43.430;23.136;2023-07-02T20:48:03;97674.56;;;19.41;100.00
46722;BME280;32455;43.430;23.136;2023-07-02T20:50:47;97662.84;;;19.41;100.00
46722;BME280;32455;43.430;23.136;2023-07-02T20:53:33;97664.44;;;19.23;100.00
46722;BME280;32455;43.430;23.136;2023-07-02T20:56:18;97671.03;;;19.17;100.00
46722;BME280;32455;43.430;23.136;2023-07-02T20:59:03;97675.97;;;19.15;100.00
46722;BME280;32455;43.430;23.136;2023-07-02T21:01:49;97668.94;;;19.09;100.00
46722;BME280;32455;43.430;23.136;2023-07-02T21:04:35;97676.56;;;19.12;100.00
46722;BME280;32455;43.430;23.136;2023-07-02T21:07:25;97681.53;;;19.05;100.00
46722;BME280;32455;43.430;23.136;2023-07-02T21:10:10;97673.91;;;19.07;100.00
46722;BME280;32455;43.430;23.136;2023-07-02T21:12:56;97678.38;;;18.92;100.00
46722;BME280;32455;43.430;23.136;2023-07-02T21:15:41;97683.88;;;18.87;100.00
46722;BME280;32455;43.430;23.136;2023-07-02T21:18:27;97682.94;;;19.02;100.00
46722;BME280;32455;43.430;23.136;2023-07-02T21:21:13;97668.88;;;19.14;100.00
46722;BME280;32455;43.430;23.136;2023-07-02T21:23:59;97666.75;;;19.11;100.00
46722;BME280;32455;43.430;23.136;2023-07-02T21:26:44;97676.41;;;19.22;100.00
46722;BME280;32455;43.430;23.136;2023-07-02T21:29:30;97672.44;;;19.14;100.00
46722;BME280;32455;43.430;23.136;2023-07-02T21:32:15;97665.28;;;19.18;100.00
46722;BME280;32455;43.430;23.136;2023-07-02T21:35:00;97667.19;;;19.18;100.00
46722;BME280;32455;43.430;23.136;2023-07-02T21:37:46;97660.06;;;19.22;100.00
46722;BME280;32455;43.430;23.136;2023-07-02T21:40:32;97663.59;;;19.22;100.00
46722;BME280;32455;43.430;23.136;2023-07-02T21:43:18;97667.75;;;19.20;100.00
46722;BME280;32455;43.430;23.136;2023-07-02T21:46:05;97663.16;;;19.15;100.00
46722;BME280;32455;43.430;23.136;2023-07-02T21:48:51;97667.81;;;19.15;100.00
46722;BME280;32455;43.430;23.136;2023-07-02T21:51:36;97681.94;;;19.41;100.00
46722;BME280;32455;43.430;23.136;2023-07-02T21:54:21;97670.38;;;19.49;100.00
46722;BME280;32455;43.430;23.136;2023-07-02T21:57:07;97668.88;;;19.38;100.00
46722;BME280;32455;43.430;23.136;2023-07-02T21:59:52;97669.34;;;19.45;100.00
46722;BME280;32455;43.430;23.136;2023-07-02T22:02:38;97677.78;;;19.43;100.00
46722;BME280;32455;43.430;23.136;2023-07-02T22:05:23;97682.66;;;19.46;100.00
46722;BME280;32455;43.430;23.136;2023-07-02T22:08:09;97675.00;;;19.48;100.00
46722;BME280;32455;43.430;23.136;2023-07-02T22:10:55;97680.97;;;19.50;100.00
46722;BME280;32455;43.430;23.136;2023-07-02T22:13:40;97676.88;;;19.53;100.00
46722;BME280;32455;43.430;23.136;2023-07-02T22:16:26;97685.88;;;19.48;100.00
46722;BME280;32455;43.430;23.136;2023-07-02T22:19:11;97671.03;;;19.41;100.00
46722;BME280;32455;43.430;23.136;2023-07-02T22:21:57;97679.94;;;19.46;100.00
46722;BME280;32455;43.430;23.136;2023-07-02T22:24:42;97675.44;;;19.37;100.00
46722;BME280;32455;43.430;23.136;2023-07-02T22:27:27;97684.03;;;19.44;100.00
46722;BME280;32455;43.430;23.136;2023-07-02T22:30:12;97675.44;;;19.37;100.00
46722;BME280;32455;43.430;23.136;2023-07-02T22:32:57;97668.88;;;19.38;100.00
46722;BME280;32455;43.430;23.136;2023-07-02T22:35:42;97665.34;;;19.37;100.00
46722;BME280;32455;43.430;23.136;2023-07-02T22:38:27;97677.28;;;19.41;100.00
46722;BME280;32455;43.430;23.136;2023-07-02T22:41:13;97663.44;;;19.38;100.00
46722;BME280;32455;43.430;23.136;2023-07-02T22:43:58;97663.94;;;19.40;100.00
46722;BME280;32455;43.430;23.136;2023-07-02T22:46:44;97666.66;;;19.40;100.00
46722;BME280;32455;43.430;23.136;2023-07-02T22:49:29;97668.66;;;19.34;100.00
46722;BME280;32455;43.430;23.136;2023-07-02T22:52:17;97665.91;;;19.34;100.00
46722;BME280;32455;43.430;23.136;2023-07-02T22:55:04;97663.19;;;19.34;100.00
46722;BME280;32455;43.430;23.136;2023-07-02T22:57:51;97661.88;;;19.32;100.00
46722;BME280;32455;43.430;23.136;2023-07-02T23:00:37;97666.88;;;19.24;100.00
46722;BME280;32455;43.430;23.136;2023-07-02T23:03:22;97658.94;;;19.28;100.00
46722;BME280;32455;43.430;23.136;2023-07-02T23:06:08;97668.66;;;19.34;100.00
46722;BME280;32455;43.430;23.136;2023-07-02T23:08:54;97667.84;;;19.34;100.00
46722;BME280;32455;43.430;23.136;2023-07-02T23:11:39;97670.41;;;19.25;100.00
46722;BME280;32455;43.430;23.136;2023-07-02T23:14:24;97669.41;;;19.16;100.00
46722;BME280;32455;43.430;23.136;2023-07-02T23:17:10;97668.31;;;19.17;100.00
46722;BME280;32455;43.430;23.136;2023-07-02T23:19:58;97670.53;;;19.15;100.00
46722;BME280;32455;43.430;23.136;2023-07-02T23:22:46;97670.81;;;19.13;100.00
46722;BME280;32455;43.430;23.136;2023-07-02T23:25:33;97680.63;;;19.14;100.00
46722;BME280;32455;43.430;23.136;2023-07-02T23:28:18;97665.19;;;19.05;100.00
46722;BME280;32455;43.430;23.136;2023-07-02T23:31:04;97668.94;;;19.09;100.00
46722;BME280;32455;43.430;23.136;2023-07-02T23:33:49;97678.09;;;19.18;100.00
46722;BME280;32455;43.430;23.136;2023-07-02T23:36:35;97668.88;;;19.14;100.00
46722;BME280;32455;43.430;23.136;2023-07-02T23:39:20;97677.84;;;19.19;100.00
46722;BME280;32455;43.430;23.136;2023-07-02T23:42:06;97671.03;;;19.17;100.00
46722;BME280;32455;43.430;23.136;2023-07-02T23:44:51;97668.16;;;19.08;100.00
46722;BME280;32455;43.430;23.136;2023-07-02T23:47:37;97680.00;;;19.17;100.00
46722;BME280;32455;43.430;23.136;2023-07-02T23:50:23;97674.13;;;19.10;100.00
46722;BME280;32455;43.430;23.136;2023-07-02T23:53:08;97669.75;;;19.09;100.00
46722;BME280;32455;43.430;23.136;2023-07-02T23:55:53;97686.06;;;19.14;100.00
46722;BME280;32455;43.430;23.136;2023-07-02T23:58:39;97682.63;;;19.04;100.00
